Time,TemperatureF,DewpointF,PressureIn,WindDirection,WindDirectionDegrees,WindSpeedMPH,WindSpeedGustMPH,Humidity,HourlyPrecipIn,Conditions,Clouds,dailyrainin,SoftwareType,DateUTC
2013-02-12 00:00:00,73.2,62.8,30.07,SSE,158,2.3,3.5,70,0.00,CLR,,0.00,WeatherDisplay:10.37,2013-02-12 05:00:00,
2013-02-12 00:05:00,73.4,63.0,30.07,SE,135,3.5,3.5,70,0.00,CLR,,0.00,WeatherDisplay:10.37,2013-02-12 05:05:00,
2013-02-12 00:10:00,73.0,62.7,30.06,SSE,158,5.8,5.8,70,0.00,CLR,,0.00,WeatherDisplay:10.37,2013-02-12 05:10:00,
2013-02-12 00:15:00,73.0,62.7,30.06,South,180,6.9,6.9,70,0.00,CLR,,0.00,WeatherDisplay:10.37,2013-02-12 05:15:00,
2013-02-12 00:20:00,73.0,62.7,30.06,South,180,1.1,3.5,70,0.00,CLR,,0.00,WeatherDisplay:10.37,2013-02-12 05:20:00,
2013-02-12 00:25:00,73.2,62.8,30.06,SSE,158,9.2,9.2,70,0.00,CLR,,0.00,WeatherDisplay:10.37,2013-02-12 05:25:00,
2013-02-12 00:30:00,73.0,62.7,30.06,SE,135,3.5,3.5,70,0.00,CLR,,0.00,WeatherDisplay:10.37,2013-02-12 05:30:00,
2013-02-12 00:35:00,73.0,63.1,30.06,SE,135,6.9,6.9,71,0.00,CLR,,0.00,WeatherDisplay:10.37,2013-02-12 05:35:00,
2013-02-12 00:40:00,73.0,63.1,30.06,SE,135,3.5,3.8,71,0.00,CLR,,0.00,WeatherDisplay:10.37,2013-02-12 05:40:00,
2013-02-12 00:45:00,73.0,63.1,30.06,SE,135,3.5,3.5,71,0.00,CLR,,0.00,WeatherDisplay:10.37,2013-02-12 05:45:00,
2013-02-12 00:51:00,72.9,62.9,30.06,South,180,4.6,4.6,71,0.00,CLR,,0.00,WeatherDisplay:10.37,2013-02-12 05:51:00,
2013-02-12 00:56:00,72.9,63.3,30.06,South,180,1.1,2.4,72,0.00,CLR,,0.00,WeatherDisplay:10.37,2013-02-12 05:56:00,
2013-02-12 01:01:00,72.7,63.1,30.06,SSE,158,4.6,4.6,72,0.00,CLR,,0.00,WeatherDisplay:10.37,2013-02-12 06:01:00,
2013-02-12 01:06:00,72.9,63.7,30.06,SSE,158,4.6,4.6,73,0.00,CLR,,0.00,WeatherDisplay:10.37,2013-02-12 06:06:00,
2013-02-12 01:11:00,72.9,63.7,30.06,South,180,3.5,3.5,73,0.00,CLR,,0.00,WeatherDisplay:10.37,2013-02-12 06:11:00,
2013-02-12 01:16:00,72.9,63.7,30.06,SE,135,3.5,3.5,73,0.00,CLR,,0.00,WeatherDisplay:10.37,2013-02-12 06:16:00,
2013-02-12 01:21:00,72.9,63.7,30.06,SSE,158,4.6,4.6,73,0.00,CLR,,0.00,WeatherDisplay:10.37,2013-02-12 06:21:00,
2013-02-12 01:26:00,72.9,63.7,30.06,SSE,158,4.6,4.6,73,0.00,CLR,,0.00,WeatherDisplay:10.37,2013-02-12 06:26:00,
2013-02-12 01:31:00,72.9,63.7,30.06,SSE,158,3.5,3.5,73,0.00,CLR,,0.00,WeatherDisplay:10.37,2013-02-12 06:31:00,
2013-02-12 01:36:00,72.7,63.9,30.06,South,180,4.6,4.6,74,0.00,CLR,,0.00,WeatherDisplay:10.37,2013-02-12 06:36:00,
2013-02-12 01:41:00,72.7,63.9,30.06,SSE,158,4.6,4.6,74,0.00,CLR,,0.00,WeatherDisplay:10.37,2013-02-12 06:41:00,
2013-02-12 01:46:00,72.5,63.7,30.06,SSE,158,4.6,4.6,74,0.00,CLR,,0.00,WeatherDisplay:10.37,2013-02-12 06:46:00,
2013-02-12 01:51:00,72.5,63.7,30.05,SE,135,4.6,4.6,74,0.00,CLR,,0.00,WeatherDisplay:10.37,2013-02-12 06:51:00,
2013-02-12 01:56:00,72.3,63.6,30.05,SE,135,3.5,3.5,74,0.00,CLR,,0.00,WeatherDisplay:10.37,2013-02-12 06:56:00,
2013-02-12 02:01:00,72.3,63.6,30.05,SSE,158,6.9,6.9,74,0.00,CLR,,0.00,WeatherDisplay:10.37,2013-02-12 07:01:00,
2013-02-12 02:06:00,72.3,63.6,30.05,SSE,158,4.6,4.6,74,0.00,CLR,,0.00,WeatherDisplay:10.37,2013-02-12 07:06:00,
2013-02-12 02:11:00,72.3,63.6,30.04,SSE,158,4.6,4.6,74,0.00,CLR,,0.00,WeatherDisplay:10.37,2013-02-12 07:11:00,
2013-02-12 02:16:00,72.3,63.6,30.04,SE,135,6.9,6.9,74,0.00,CLR,,0.00,WeatherDisplay:10.37,2013-02-12 07:16:00,
2013-02-12 02:21:00,72.3,63.9,30.04,SSE,158,2.3,3.7,75,0.00,CLR,,0.00,WeatherDisplay:10.37,2013-02-12 07:21:00,
2013-02-12 02:26:00,72.3,63.6,30.04,SSE,158,5.8,5.8,74,0.00,CLR,,0.00,WeatherDisplay:10.37,2013-02-12 07:26:00,
2013-02-12 02:31:00,72.5,64.1,30.03,South,180,2.3,3.6,75,0.00,CLR,,0.00,WeatherDisplay:10.37,2013-02-12 07:31:00,
2013-02-12 02:36:00,72.3,63.9,30.03,SSE,158,2.3,3.0,75,0.00,CLR,,0.00,WeatherDisplay:10.37,2013-02-12 07:36:00,
2013-02-12 02:41:00,72.1,63.8,30.03,SSE,158,3.5,3.5,75,0.00,CLR,,0.00,WeatherDisplay:10.37,2013-02-12 07:41:00,
2013-02-12 02:46:00,72.3,63.9,30.03,South,180,3.5,3.5,75,0.00,CLR,,0.00,WeatherDisplay:10.37,2013-02-12 07:46:00,
2013-02-12 02:51:00,72.1,63.8,30.03,SE,135,4.6,4.6,75,0.00,CLR,,0.00,WeatherDisplay:10.37,2013-02-12 07:51:00,
2013-02-12 02:56:00,72.1,63.8,30.03,SE,135,2.3,2.6,75,0.00,CLR,,0.00,WeatherDisplay:10.37,2013-02-12 07:56:00,
2013-02-12 03:01:00,72.0,63.6,30.03,SE,135,4.6,4.6,75,0.00,CLR,,0.00,WeatherDisplay:10.37,2013-02-12 08:01:00,
2013-02-12 03:06:00,72.1,63.8,30.03,SE,135,1.1,2.6,75,0.00,CLR,,0.00,WeatherDisplay:10.37,2013-02-12 08:06:00,
2013-02-12 03:11:00,72.0,63.6,30.03,South,180,4.6,4.6,75,0.00,CLR,,0.00,WeatherDisplay:10.37,2013-02-12 08:11:00,
2013-02-12 03:16:00,72.1,63.8,30.03,South,180,2.3,2.6,75,0.00,CLR,,0.00,WeatherDisplay:10.37,2013-02-12 08:16:00,
2013-02-12 03:21:00,72.1,63.8,30.03,SSE,158,4.6,4.6,75,0.00,CLR,,0.00,WeatherDisplay:10.37,2013-02-12 08:21:00,
2013-02-12 03:26:00,72.0,63.6,30.03,SE,135,3.5,3.5,75,0.00,CLR,,0.00,WeatherDisplay:10.37,2013-02-12 08:26:00,
2013-02-12 03:31:00,72.0,63.6,30.02,SSE,158,3.5,3.5,75,0.00,CLR,,0.00,WeatherDisplay:10.37,2013-02-12 08:31:00,
2013-02-12 03:36:00,71.8,63.4,30.02,SSW,202,2.3,2.3,75,0.00,CLR,,0.00,WeatherDisplay:10.37,2013-02-12 08:36:00,
2013-02-12 03:41:00,71.8,63.4,30.02,SSE,158,3.5,3.5,75,0.00,CLR,,0.00,WeatherDisplay:10.37,2013-02-12 08:41:00,
2013-02-12 03:46:00,71.6,63.3,30.02,West,270,2.3,2.3,75,0.00,CLR,,0.00,WeatherDisplay:10.37,2013-02-12 08:46:00,
2013-02-12 03:51:00,71.8,63.8,30.03,SSE,158,2.3,2.3,76,0.00,CLR,,0.00,WeatherDisplay:10.37,2013-02-12 08:51:00,
2013-02-12 03:56:00,71.8,63.4,30.03,ESE,112,2.3,2.3,75,0.00,CLR,,0.00,WeatherDisplay:10.37,2013-02-12 08:56:00,
2013-02-12 04:01:00,71.8,63.4,30.03,South,180,3.5,3.5,75,0.00,CLR,,0.00,WeatherDisplay:10.37,2013-02-12 09:01:00,
2013-02-12 04:06:00,71.6,63.3,30.03,South,180,1.1,1.8,75,0.00,CLR,,0.00,WeatherDisplay:10.37,2013-02-12 09:06:00,
2013-02-12 04:11:00,71.4,63.1,30.02,SSE,158,3.5,3.5,75,0.00,CLR,,0.00,WeatherDisplay:10.37,2013-02-12 09:11:00,
2013-02-12 04:16:00,71.4,63.1,30.02,SE,135,0.0,1.4,75,0.00,CLR,,0.00,WeatherDisplay:10.37,2013-02-12 09:16:00,
2013-02-12 04:21:00,71.2,62.9,30.02,SW,225,1.1,1.1,75,0.00,CLR,,0.00,WeatherDisplay:10.37,2013-02-12 09:21:00,
2013-02-12 04:26:00,71.4,63.5,30.02,SSE,158,0.0,0.8,76,0.00,CLR,,0.00,WeatherDisplay:10.37,2013-02-12 09:26:00,
2013-02-12 04:31:00,71.1,63.1,30.02,SSE,158,1.1,1.1,76,0.00,CLR,,0.00,WeatherDisplay:10.37,2013-02-12 09:31:00,
2013-02-12 04:36:00,71.1,63.1,30.02,WSW,248,0.0,0.5,76,0.00,CLR,,0.00,WeatherDisplay:10.37,2013-02-12 09:36:00,
2013-02-12 04:41:00,70.9,62.9,30.02,SW,225,0.0,0.3,76,0.00,CLR,,0.00,WeatherDisplay:10.37,2013-02-12 09:41:00,
2013-02-12 04:46:00,71.1,63.1,30.02,SSE,158,1.1,1.1,76,0.00,CLR,,0.00,WeatherDisplay:10.37,2013-02-12 09:46:00,
2013-02-12 04:51:00,70.7,62.8,30.02,SSW,202,1.1,1.1,76,0.00,CLR,,0.00,WeatherDisplay:10.37,2013-02-12 09:51:00,
2013-02-12 04:56:00,70.7,62.8,30.02,WSW,248,0.0,0.2,76,0.00,CLR,,0.00,WeatherDisplay:10.37,2013-02-12 09:56:00,
2013-02-12 05:01:00,70.5,62.6,30.02,WSW,248,0.0,0.1,76,0.00,CLR,,0.00,WeatherDisplay:10.37,2013-02-12 10:01:00,
2013-02-12 05:06:00,70.3,62.4,30.02,SW,225,0.0,0.1,76,0.00,CLR,,0.00,WeatherDisplay:10.37,2013-02-12 10:06:00,
2013-02-12 05:11:00,70.2,62.2,30.02,South,180,0.0,0.1,76,0.00,CLR,,0.00,WeatherDisplay:10.37,2013-02-12 10:11:00,
2013-02-12 05:16:00,70.2,62.6,30.02,WNW,292,0.0,0.1,77,0.00,CLR,,0.00,WeatherDisplay:10.37,2013-02-12 10:16:00,
2013-02-12 05:21:00,70.2,62.6,30.02,West,270,0.0,0.0,77,0.00,CLR,,0.00,WeatherDisplay:10.37,2013-02-12 10:21:00,
2013-02-12 05:26:00,70.0,62.4,30.02,WNW,292,0.0,0.0,77,0.00,CLR,,0.00,WeatherDisplay:10.37,2013-02-12 10:26:00,
2013-02-12 05:31:00,70.0,62.4,30.02,South,180,0.0,0.0,77,0.00,CLR,,0.00,WeatherDisplay:10.37,2013-02-12 10:31:00,
2013-02-12 05:36:00,69.6,62.1,30.02,West,270,0.0,0.0,77,0.00,CLR,,0.00,WeatherDisplay:10.37,2013-02-12 10:36:00,
2013-02-12 05:41:00,69.4,61.9,30.02,South,180,1.1,0.0,77,0.00,CLR,,0.00,WeatherDisplay:10.37,2013-02-12 10:41:00,
2013-02-12 05:46:00,69.6,62.1,30.02,WSW,248,0.0,0.0,77,0.00,CLR,,0.00,WeatherDisplay:10.37,2013-02-12 10:46:00,
2013-02-12 05:51:00,69.3,61.7,30.01,West,270,0.0,0.0,77,0.00,CLR,,0.00,WeatherDisplay:10.37,2013-02-12 10:51:00,
2013-02-12 05:56:00,69.3,61.7,30.01,SSE,158,0.0,0.1,77,0.00,CLR,,0.00,WeatherDisplay:10.37,2013-02-12 10:56:00,
2013-02-12 06:01:00,69.3,61.7,30.01,SW,225,0.0,0.2,77,0.00,CLR,,0.00,WeatherDisplay:10.37,2013-02-12 11:01:00,
2013-02-12 06:06:00,69.1,61.6,30.01,SW,225,0.0,0.2,77,0.00,CLR,,0.00,WeatherDisplay:10.37,2013-02-12 11:06:00,
2013-02-12 06:11:00,69.1,61.9,30.02,WSW,248,1.1,1.1,78,0.00,CLR,,0.00,WeatherDisplay:10.37,2013-02-12 11:11:00,
2013-02-12 06:16:00,69.1,61.9,30.02,West,270,0.0,0.2,78,0.00,CLR,,0.00,WeatherDisplay:10.37,2013-02-12 11:16:00,
2013-02-12 06:21:00,69.3,62.1,30.02,SW,225,1.1,1.1,78,0.00,CLR,,0.00,WeatherDisplay:10.37,2013-02-12 11:21:00,
2013-02-12 06:26:00,69.3,62.1,30.02,WNW,292,0.0,0.1,78,0.00,CLR,,0.00,WeatherDisplay:10.37,2013-02-12 11:26:00,
2013-02-12 06:31:00,69.3,62.1,30.02,SW,225,0.0,0.0,78,0.00,CLR,,0.00,WeatherDisplay:10.37,2013-02-12 11:31:00,
2013-02-12 06:36:00,69.3,62.1,30.02,South,180,0.0,0.0,78,0.00,CLR,,0.00,WeatherDisplay:10.37,2013-02-12 11:36:00,
2013-02-12 06:41:00,69.1,61.9,30.02,WSW,248,0.0,0.1,78,0.00,CLR,,0.00,WeatherDisplay:10.37,2013-02-12 11:41:00,
2013-02-12 06:46:00,69.3,62.1,30.02,SW,225,0.0,0.1,78,0.00,CLR,,0.00,WeatherDisplay:10.37,2013-02-12 11:46:00,
2013-02-12 06:51:00,69.3,62.1,30.02,North,0,0.0,0.0,78,0.00,CLR,,0.00,WeatherDisplay:10.37,2013-02-12 11:51:00,
2013-02-12 06:56:00,69.1,61.9,30.02,WSW,248,0.0,0.0,78,0.00,CLR,,0.00,WeatherDisplay:10.37,2013-02-12 11:56:00,
2013-02-12 07:01:00,69.3,62.1,30.02,West,270,1.1,0.0,78,0.00,CLR,,0.00,WeatherDisplay:10.37,2013-02-12 12:01:00,
2013-02-12 07:06:00,69.1,61.9,30.02,NW,315,0.0,0.0,78,0.00,CLR,,0.00,WeatherDisplay:10.37,2013-02-12 12:06:00,
2013-02-12 07:11:00,69.3,62.1,30.03,West,270,0.0,0.0,78,0.00,CLR,,0.00,WeatherDisplay:10.37,2013-02-12 12:11:00,
2013-02-12 07:16:00,69.1,62.3,30.03,North,0,0.0,0.0,79,0.00,CLR,,0.00,WeatherDisplay:10.37,2013-02-12 12:16:00,
2013-02-12 07:21:00,69.1,62.3,30.03,NW,315,0.0,0.0,79,0.00,CLR,,0.00,WeatherDisplay:10.37,2013-02-12 12:21:00,
2013-02-12 07:26:00,69.3,62.5,30.03,NW,315,0.0,0.0,79,0.00,CLR,,0.00,WeatherDisplay:10.37,2013-02-12 12:26:00,
2013-02-12 07:31:00,69.4,62.6,30.03,WSW,248,0.0,0.0,79,0.00,CLR,,0.00,WeatherDisplay:10.37,2013-02-12 12:31:00,
2013-02-12 07:36:00,69.4,62.6,30.03,WNW,292,0.0,0.0,79,0.00,CLR,,0.00,WeatherDisplay:10.37,2013-02-12 12:36:00,
2013-02-12 07:41:00,69.8,63.0,30.03,WNW,292,0.0,0.0,79,0.00,CLR,,0.00,WeatherDisplay:10.37,2013-02-12 12:41:00,
2013-02-12 07:46:00,70.0,62.8,30.03,NW,315,0.0,0.0,78,0.00,CLR,,0.00,WeatherDisplay:10.37,2013-02-12 12:46:00,
2013-02-12 07:51:00,70.3,63.2,30.03,NW,315,0.0,0.0,78,0.00,CLR,,0.00,WeatherDisplay:10.37,2013-02-12 12:51:00,
2013-02-12 07:56:00,70.7,63.5,30.03,WSW,248,0.0,0.1,78,0.00,CLR,,0.00,WeatherDisplay:10.37,2013-02-12 12:56:00,
2013-02-12 08:01:00,71.1,64.2,30.03,South,180,0.0,0.0,79,0.00,CLR,,0.00,WeatherDisplay:10.37,2013-02-12 13:01:00,
2013-02-12 08:06:00,71.2,64.0,30.03,North,0,0.0,0.1,78,0.00,CLR,,0.00,WeatherDisplay:10.37,2013-02-12 13:06:00,
2013-02-12 08:11:00,71.6,64.4,30.03,West,270,0.0,0.2,78,0.00,CLR,,0.00,WeatherDisplay:10.37,2013-02-12 13:11:00,
2013-02-12 08:16:00,72.0,64.7,30.03,South,180,2.3,2.3,78,0.00,CLR,,0.00,WeatherDisplay:10.37,2013-02-12 13:16:00,
2013-02-12 08:21:00,72.5,64.9,30.03,SE,135,3.5,3.5,77,0.00,CLR,,0.00,WeatherDisplay:10.37,2013-02-12 13:21:00,
2013-02-12 08:26:00,72.7,65.1,30.03,SSE,158,0.0,1.3,77,0.00,CLR,,0.00,WeatherDisplay:10.37,2013-02-12 13:26:00,
2013-02-12 08:31:00,73.0,65.0,30.04,West,270,3.5,3.5,76,0.00,CLR,,0.00,WeatherDisplay:10.37,2013-02-12 13:31:00,
2013-02-12 08:36:00,73.4,65.4,30.04,South,180,2.3,2.3,76,0.00,CLR,,0.00,WeatherDisplay:10.37,2013-02-12 13:36:00,
2013-02-12 08:41:00,73.9,65.5,30.04,WSW,248,2.3,2.3,75,0.00,CLR,,0.00,WeatherDisplay:10.37,2013-02-12 13:41:00,
2013-02-12 08:46:00,74.3,65.9,30.04,SW,225,2.3,2.3,75,0.00,CLR,,0.00,WeatherDisplay:10.37,2013-02-12 13:46:00,
2013-02-12 08:51:00,74.5,66.0,30.04,SW,225,4.6,4.6,75,0.00,CLR,,0.00,WeatherDisplay:10.37,2013-02-12 13:51:00,
2013-02-12 08:56:00,74.7,66.2,30.04,SE,135,2.3,2.3,75,0.00,CLR,,0.00,WeatherDisplay:10.37,2013-02-12 13:56:00,
2013-02-12 09:01:00,75.2,66.3,30.04,South,180,4.6,4.6,74,0.00,CLR,,0.00,WeatherDisplay:10.37,2013-02-12 14:01:00,
2013-02-12 09:06:00,75.4,66.1,30.04,South,180,4.6,4.6,73,0.00,CLR,,0.00,WeatherDisplay:10.37,2013-02-12 14:06:00,
2013-02-12 09:11:00,75.7,66.5,30.04,SSE,158,2.3,2.8,73,0.00,CLR,,0.00,WeatherDisplay:10.37,2013-02-12 14:11:00,
2013-02-12 09:16:00,75.9,66.2,30.04,SSE,158,2.3,2.6,72,0.00,CLR,,0.00,WeatherDisplay:10.37,2013-02-12 14:16:00,
2013-02-12 09:21:00,76.5,66.4,30.04,South,180,5.8,5.8,71,0.00,CLR,,0.00,WeatherDisplay:10.37,2013-02-12 14:21:00,
2013-02-12 09:26:00,77.2,66.6,30.04,South,180,3.5,3.8,70,0.00,CLR,,0.00,WeatherDisplay:10.37,2013-02-12 14:26:00,
2013-02-12 09:31:00,77.2,66.6,30.05,SSE,158,9.2,9.2,70,0.00,CLR,,0.00,WeatherDisplay:10.37,2013-02-12 14:31:00,
2013-02-12 09:36:00,77.5,67.0,30.05,South,180,5.8,5.8,70,0.00,CLR,,0.00,WeatherDisplay:10.37,2013-02-12 14:36:00,
2013-02-12 09:41:00,77.7,66.7,30.05,South,180,6.9,6.9,69,0.00,CLR,,0.00,WeatherDisplay:10.37,2013-02-12 14:41:00,
2013-02-12 09:46:00,78.1,67.1,30.05,WSW,248,4.6,4.8,69,0.00,CLR,,0.00,WeatherDisplay:10.37,2013-02-12 14:46:00,
2013-02-12 09:51:00,78.4,67.0,30.05,South,180,5.8,5.8,68,0.00,CLR,,0.00,WeatherDisplay:10.37,2013-02-12 14:51:00,
2013-02-12 09:56:00,78.6,67.2,30.05,North,0,6.9,6.9,68,0.00,CLR,,0.00,WeatherDisplay:10.37,2013-02-12 14:56:00,
2013-02-12 10:01:00,78.8,66.5,30.05,South,180,4.6,4.6,66,0.00,CLR,,0.00,WeatherDisplay:10.37,2013-02-12 15:01:00,
2013-02-12 10:06:00,79.0,66.6,30.05,ESE,112,6.9,6.9,66,0.00,CLR,,0.00,WeatherDisplay:10.37,2013-02-12 15:06:00,
2013-02-12 10:11:00,79.3,67.0,30.05,SE,135,9.2,9.2,66,0.00,CLR,,0.00,WeatherDisplay:10.37,2013-02-12 15:11:00,
2013-02-12 10:16:00,79.3,67.0,30.05,SSE,158,5.8,5.8,66,0.00,CLR,,0.00,WeatherDisplay:10.37,2013-02-12 15:16:00,
2013-02-12 10:21:00,79.5,67.2,30.05,SSE,158,6.9,6.9,66,0.00,CLR,,0.00,WeatherDisplay:10.37,2013-02-12 15:21:00,
2013-02-12 10:26:00,80.1,67.7,30.05,SSE,158,4.6,5.1,66,0.00,CLR,,0.00,WeatherDisplay:10.37,2013-02-12 15:26:00,
2013-02-12 10:31:00,80.2,67.4,30.05,SSE,158,6.9,6.9,65,0.00,CLR,,0.00,WeatherDisplay:10.37,2013-02-12 15:31:00,
2013-02-12 10:36:00,80.4,67.6,30.05,SSE,158,6.9,6.9,65,0.00,CLR,,0.00,WeatherDisplay:10.37,2013-02-12 15:36:00,
2013-02-12 10:41:00,81.1,68.3,30.05,South,180,6.9,6.9,65,0.00,CLR,,0.00,WeatherDisplay:10.37,2013-02-12 15:41:00,
2013-02-12 10:46:00,81.5,68.1,30.05,ESE,112,8.1,8.1,64,0.00,CLR,,0.00,WeatherDisplay:10.37,2013-02-12 15:46:00,
2013-02-12 10:51:00,81.7,67.9,30.05,SE,135,10.4,10.4,63,0.00,CLR,,0.00,WeatherDisplay:10.37,2013-02-12 15:51:00,
2013-02-12 10:56:00,82.2,68.4,30.05,SSE,158,8.1,8.1,63,0.00,CLR,,0.00,WeatherDisplay:10.37,2013-02-12 15:56:00,
2013-02-12 11:01:00,82.6,68.2,30.05,SE,135,6.9,6.9,62,0.00,CLR,,0.00,WeatherDisplay:10.37,2013-02-12 16:01:00,
2013-02-12 11:06:00,82.8,68.4,30.05,SE,135,4.6,6.6,62,0.00,CLR,,0.00,WeatherDisplay:10.37,2013-02-12 16:06:00,
2013-02-12 11:11:00,82.9,68.6,30.05,East,90,9.2,9.2,62,0.00,CLR,,0.00,WeatherDisplay:10.37,2013-02-12 16:11:00,
2013-02-12 11:16:00,82.0,67.7,30.05,SSE,158,6.9,6.9,62,0.00,CLR,,0.00,WeatherDisplay:10.37,2013-02-12 16:16:00,
2013-02-12 11:21:00,82.0,68.2,30.05,SSE,158,8.1,8.1,63,0.00,CLR,,0.00,WeatherDisplay:10.37,2013-02-12 16:21:00,
2013-02-12 11:26:00,82.6,68.2,30.05,SE,135,6.9,6.9,62,0.00,CLR,,0.00,WeatherDisplay:10.37,2013-02-12 16:26:00,
2013-02-12 11:31:00,81.9,67.6,30.05,SE,135,13.8,13.8,62,0.00,CLR,,0.00,WeatherDisplay:10.37,2013-02-12 16:31:00,
2013-02-12 11:36:00,81.5,67.7,30.05,SSE,158,8.1,8.1,63,0.00,CLR,,0.00,WeatherDisplay:10.37,2013-02-12 16:36:00,
2013-02-12 11:41:00,81.5,68.1,30.05,ESE,112,11.5,11.5,64,0.00,CLR,,0.00,WeatherDisplay:10.37,2013-02-12 16:41:00,
2013-02-12 11:46:00,81.1,67.3,30.05,SE,135,5.8,5.8,63,0.00,CLR,,0.00,WeatherDisplay:10.37,2013-02-12 16:46:00,
2013-02-12 11:51:00,82.6,69.2,30.04,SSE,158,9.2,9.2,64,0.00,CLR,,0.00,WeatherDisplay:10.37,2013-02-12 16:51:00,
2013-02-12 11:56:00,82.2,68.4,30.04,SE,135,6.9,6.9,63,0.00,CLR,,0.00,WeatherDisplay:10.37,2013-02-12 16:56:00,
2013-02-12 12:01:00,82.9,69.0,30.04,SW,225,6.9,6.9,63,0.00,CLR,,0.00,WeatherDisplay:10.37,2013-02-12 17:01:00,
2013-02-12 12:06:00,82.6,68.7,30.04,SW,225,6.9,6.9,63,0.00,CLR,,0.00,WeatherDisplay:10.37,2013-02-12 17:06:00,
2013-02-12 12:11:00,82.6,68.7,30.04,SW,225,6.9,6.9,63,0.00,CLR,,0.00,WeatherDisplay:10.37,2013-02-12 17:11:00,
2013-02-12 12:16:00,81.3,67.5,30.04,South,180,6.9,6.9,63,0.00,CLR,,0.00,WeatherDisplay:10.37,2013-02-12 17:16:00,
2013-02-12 12:21:00,81.0,67.2,30.04,SE,135,6.9,6.9,63,0.00,CLR,,0.00,WeatherDisplay:10.37,2013-02-12 17:21:00,
2013-02-12 12:26:00,81.0,67.2,30.04,SE,135,5.8,5.8,63,0.00,CLR,,0.00,WeatherDisplay:10.37,2013-02-12 17:26:00,
2013-02-12 12:31:00,82.0,68.7,30.04,South,180,5.8,5.8,64,0.00,CLR,,0.00,WeatherDisplay:10.37,2013-02-12 17:31:00,
2013-02-12 12:36:00,83.3,69.4,30.04,SSE,158,8.1,8.1,63,0.00,CLR,,0.00,WeatherDisplay:10.37,2013-02-12 17:36:00,
2013-02-12 12:41:00,83.8,69.4,30.04,SE,135,9.2,9.2,62,0.00,CLR,,0.00,WeatherDisplay:10.37,2013-02-12 17:41:00,
2013-02-12 12:46:00,83.5,68.6,30.04,SSE,158,8.1,8.1,61,0.00,CLR,,0.00,WeatherDisplay:10.37,2013-02-12 17:46:00,
2013-02-12 12:51:00,82.8,68.4,30.03,NW,315,6.9,7.1,62,0.00,CLR,,0.00,WeatherDisplay:10.37,2013-02-12 17:51:00,
2013-02-12 12:56:00,83.1,68.7,30.03,SE,135,8.1,8.1,62,0.00,CLR,,0.00,WeatherDisplay:10.37,2013-02-12 17:56:00,
2013-02-12 13:01:00,83.1,68.7,30.03,ENE,68,8.1,8.1,62,0.00,CLR,,0.00,WeatherDisplay:10.37,2013-02-12 18:01:00,
2013-02-12 13:06:00,82.6,68.2,30.03,SE,135,6.9,6.9,62,0.00,CLR,,0.00,WeatherDisplay:10.37,2013-02-12 18:06:00,
2013-02-12 13:11:00,82.2,67.4,30.02,SSE,158,6.9,6.9,61,0.00,CLR,,0.00,WeatherDisplay:10.37,2013-02-12 18:11:00,
2013-02-12 13:16:00,81.5,67.2,30.02,SSE,158,8.1,8.1,62,0.00,CLR,,0.00,WeatherDisplay:10.37,2013-02-12 18:16:00,
2013-02-12 13:21:00,81.3,67.5,30.02,SSE,158,5.8,5.8,63,0.00,CLR,,0.00,WeatherDisplay:10.37,2013-02-12 18:21:00,
2013-02-12 13:26:00,82.4,68.1,30.02,SSE,158,9.2,9.2,62,0.00,CLR,,0.00,WeatherDisplay:10.37,2013-02-12 18:26:00,
2013-02-12 13:31:00,82.8,68.9,30.00,SE,135,6.9,6.9,63,0.00,CLR,,0.00,WeatherDisplay:10.37,2013-02-12 18:31:00,
2013-02-12 13:36:00,84.0,69.6,30.00,SE,135,6.9,6.9,62,0.00,CLR,,0.00,WeatherDisplay:10.37,2013-02-12 18:36:00,
2013-02-12 13:41:00,84.4,69.5,30.00,SE,135,8.1,8.1,61,0.00,CLR,,0.00,WeatherDisplay:10.37,2013-02-12 18:41:00,
2013-02-12 13:46:00,84.7,69.3,30.00,SE,135,6.9,6.9,60,0.00,CLR,,0.00,WeatherDisplay:10.37,2013-02-12 18:46:00,
2013-02-12 13:51:00,85.1,69.7,30.00,SE,135,6.9,6.9,60,0.00,CLR,,0.00,WeatherDisplay:10.37,2013-02-12 18:51:00,
2013-02-12 13:56:00,85.1,69.7,30.00,SE,135,8.1,8.1,60,0.00,CLR,,0.00,WeatherDisplay:10.37,2013-02-12 18:56:00,
2013-02-12 14:01:00,85.1,69.7,30.00,SE,135,9.2,9.2,60,0.00,CLR,,0.00,WeatherDisplay:10.37,2013-02-12 19:01:00,
2013-02-12 14:06:00,85.3,69.8,30.00,SSE,158,8.1,8.1,60,0.00,CLR,,0.00,WeatherDisplay:10.37,2013-02-12 19:06:00,
2013-02-12 14:11:00,85.3,69.8,29.99,SE,135,6.9,6.9,60,0.00,CLR,,0.00,WeatherDisplay:10.37,2013-02-12 19:11:00,
2013-02-12 14:16:00,84.2,68.8,29.99,SSE,158,9.2,9.2,60,0.00,CLR,,0.00,WeatherDisplay:10.37,2013-02-12 19:16:00,
2013-02-12 14:22:00,83.3,68.4,29.99,SSE,158,11.5,11.5,61,0.00,CLR,,0.00,WeatherDisplay:10.37,2013-02-12 19:22:00,
2013-02-12 14:27:00,83.1,68.7,29.99,SE,135,8.1,8.1,62,0.00,CLR,,0.00,WeatherDisplay:10.37,2013-02-12 19:27:00,
2013-02-12 14:32:00,83.7,69.7,29.97,SE,135,5.8,6.1,63,0.00,CLR,,0.00,WeatherDisplay:10.37,2013-02-12 19:32:00,
2013-02-12 14:37:00,83.7,69.3,29.97,SW,225,8.1,8.1,62,0.00,CLR,,0.00,WeatherDisplay:10.37,2013-02-12 19:37:00,
2013-02-12 14:42:00,82.9,69.0,29.97,SE,135,6.9,6.9,63,0.00,CLR,,0.00,WeatherDisplay:10.37,2013-02-12 19:42:00,
2013-02-12 14:47:00,83.3,69.4,29.97,SE,135,6.9,6.9,63,0.00,CLR,,0.00,WeatherDisplay:10.37,2013-02-12 19:47:00,
2013-02-12 14:52:00,83.3,69.4,29.97,SSE,158,9.2,9.2,63,0.00,CLR,,0.00,WeatherDisplay:10.37,2013-02-12 19:52:00,
2013-02-12 14:57:00,83.7,69.7,29.97,SE,135,9.2,9.2,63,0.00,CLR,,0.00,WeatherDisplay:10.37,2013-02-12 19:57:00,
2013-02-12 15:02:00,83.5,69.6,29.97,South,180,9.2,9.2,63,0.00,CLR,,0.00,WeatherDisplay:10.37,2013-02-12 20:02:00,
2013-02-12 15:07:00,83.3,69.4,29.97,SE,135,5.8,6.3,63,0.00,CLR,,0.00,WeatherDisplay:10.37,2013-02-12 20:07:00,
2013-02-12 15:12:00,83.1,69.2,29.98,SE,135,9.2,9.2,63,0.00,CLR,,0.00,WeatherDisplay:10.37,2013-02-12 20:12:00,
2013-02-12 15:17:00,82.9,69.0,29.98,South,180,8.1,8.1,63,0.00,CLR,,0.00,WeatherDisplay:10.37,2013-02-12 20:17:00,
2013-02-12 15:22:00,82.9,69.0,29.98,SSE,158,9.2,9.2,63,0.00,CLR,,0.00,WeatherDisplay:10.37,2013-02-12 20:22:00,
2013-02-12 15:27:00,82.6,68.7,29.98,SE,135,9.2,9.2,63,0.00,CLR,,0.00,WeatherDisplay:10.37,2013-02-12 20:27:00,
2013-02-12 15:32:00,82.6,68.7,29.96,SW,225,8.1,8.1,63,0.00,CLR,,0.00,WeatherDisplay:10.37,2013-02-12 20:32:00,
2013-02-12 15:37:00,82.2,68.4,29.96,SSE,158,8.1,8.1,63,0.00,CLR,,0.00,WeatherDisplay:10.37,2013-02-12 20:37:00,
2013-02-12 15:42:00,82.2,68.8,29.96,SSE,158,11.5,11.5,64,0.00,CLR,,0.00,WeatherDisplay:10.37,2013-02-12 20:42:00,
2013-02-12 15:47:00,82.2,69.3,29.96,SSE,158,6.9,7.6,65,0.00,CLR,,0.00,WeatherDisplay:10.37,2013-02-12 20:47:00,
2013-02-12 15:52:00,82.0,68.7,29.97,SE,135,13.8,13.8,64,0.00,CLR,,0.00,WeatherDisplay:10.37,2013-02-12 20:52:00,
2013-02-12 15:57:00,81.7,68.8,29.97,SSE,158,9.2,9.2,65,0.00,CLR,,0.00,WeatherDisplay:10.37,2013-02-12 20:57:00,
2013-02-12 16:02:00,81.9,68.9,29.97,SSE,158,6.9,6.9,65,0.00,CLR,,0.00,WeatherDisplay:10.37,2013-02-12 21:02:00,
2013-02-12 16:07:00,81.9,68.9,29.97,SE,135,5.8,6.4,65,0.00,CLR,,0.00,WeatherDisplay:10.37,2013-02-12 21:07:00,
2013-02-12 16:12:00,81.7,68.8,29.95,SSE,158,9.2,9.2,65,0.00,CLR,,0.00,WeatherDisplay:10.37,2013-02-12 21:12:00,
2013-02-12 16:17:00,81.5,69.0,29.95,SSE,158,4.6,5.4,66,0.00,CLR,,0.00,WeatherDisplay:10.37,2013-02-12 21:17:00,
2013-02-12 16:22:00,81.1,68.7,29.95,SSE,158,6.9,6.9,66,0.00,CLR,,0.00,WeatherDisplay:10.37,2013-02-12 21:22:00,
2013-02-12 16:27:00,81.3,69.3,29.95,SE,135,8.1,8.1,67,0.00,CLR,,0.00,WeatherDisplay:10.37,2013-02-12 21:27:00,
2013-02-12 16:32:00,81.0,69.0,29.95,SE,135,8.1,8.1,67,0.00,CLR,,0.00,WeatherDisplay:10.37,2013-02-12 21:32:00,
2013-02-12 16:59:00,79.9,67.9,29.95,South,180,5.8,5.8,67,0.00,CLR,,0.00,WeatherDisplay:10.37,2013-02-12 21:59:00,
2013-02-12 17:04:00,79.7,68.2,29.95,ESE,112,7.7,7.7,68,0.00,CLR,,0.00,WeatherDisplay:10.37,2013-02-12 22:04:00,
2013-02-12 17:09:00,79.5,68.0,29.95,SSE,158,11.5,11.5,68,0.00,CLR,,0.00,WeatherDisplay:10.37,2013-02-12 22:09:00,
2013-02-12 17:15:00,79.3,68.3,29.95,NNE,22,6.9,6.9,69,0.00,CLR,,0.00,WeatherDisplay:10.37,2013-02-12 22:15:00,
2013-02-12 17:20:00,79.0,67.9,29.95,SE,135,7.1,7.1,69,0.00,CLR,,0.00,WeatherDisplay:10.37,2013-02-12 22:20:00,
2013-02-12 17:25:00,79.0,67.9,29.95,South,180,8.1,8.1,69,0.00,CLR,,0.00,WeatherDisplay:10.37,2013-02-12 22:25:00,
2013-02-12 17:30:00,79.2,68.1,29.95,SSE,158,6.9,6.9,69,0.00,CLR,,0.00,WeatherDisplay:10.37,2013-02-12 22:30:00,
2013-02-12 17:35:00,78.8,67.8,29.95,ESE,112,9.2,9.2,69,0.00,CLR,,0.00,WeatherDisplay:10.37,2013-02-12 22:35:00,
2013-02-12 17:40:00,78.6,68.0,29.95,SSE,158,5.8,5.8,70,0.00,CLR,,0.00,WeatherDisplay:10.37,2013-02-12 22:40:00,
2013-02-12 17:45:00,78.4,67.8,29.95,West,270,9.4,9.4,70,0.00,CLR,,0.00,WeatherDisplay:10.37,2013-02-12 22:45:00,
2013-02-12 17:50:00,78.6,68.0,29.95,SSE,158,10.4,10.4,70,0.00,CLR,,0.00,WeatherDisplay:10.37,2013-02-12 22:50:00,
2013-02-12 17:55:00,78.3,68.1,29.95,SW,225,6.9,6.9,71,0.00,CLR,,0.00,WeatherDisplay:10.37,2013-02-12 22:55:00,
2013-02-12 18:00:00,78.1,67.9,29.95,SSE,158,4.6,4.7,71,0.00,CLR,,0.00,WeatherDisplay:10.37,2013-02-12 23:00:00,
2013-02-12 18:05:00,78.1,67.9,29.95,SE,135,10.4,10.4,71,0.00,CLR,,0.00,WeatherDisplay:10.37,2013-02-12 23:05:00,
2013-02-12 18:10:00,77.9,67.7,29.95,SSE,158,6.9,6.9,71,0.00,CLR,,0.00,WeatherDisplay:10.37,2013-02-12 23:10:00,
2013-02-12 18:15:00,77.9,67.7,29.95,SW,225,8.1,8.1,71,0.00,CLR,,0.00,WeatherDisplay:10.37,2013-02-12 23:15:00,
2013-02-12 18:20:00,77.7,67.6,29.95,SE,135,8.1,8.1,71,0.00,CLR,,0.00,WeatherDisplay:10.37,2013-02-12 23:20:00,
2013-02-12 18:25:00,77.5,67.4,29.95,SE,135,4.6,5.5,71,0.00,CLR,,0.00,WeatherDisplay:10.37,2013-02-12 23:25:00,
2013-02-12 18:30:00,77.4,67.2,29.95,SSE,158,8.1,8.1,71,0.00,CLR,,0.00,WeatherDisplay:10.37,2013-02-12 23:30:00,
2013-02-12 18:35:00,77.2,67.5,29.95,SSE,158,6.9,6.9,72,0.00,CLR,,0.00,WeatherDisplay:10.37,2013-02-12 23:35:00,
2013-02-12 18:40:00,77.0,67.3,29.95,South,180,6.9,6.9,72,0.00,CLR,,0.00,WeatherDisplay:10.37,2013-02-12 23:40:00,
2013-02-12 18:45:00,76.8,67.1,29.95,SSE,158,10.4,10.4,72,0.00,CLR,,0.00,WeatherDisplay:10.37,2013-02-12 23:45:00,
2013-02-12 18:50:00,76.8,67.1,29.95,South,180,5.8,5.8,72,0.00,CLR,,0.00,WeatherDisplay:10.37,2013-02-12 23:50:00,
2013-02-12 18:55:00,76.6,66.9,29.95,SSE,158,11.5,11.5,72,0.00,CLR,,0.00,WeatherDisplay:10.37,2013-02-12 23:55:00,
2013-02-12 19:00:00,76.8,67.5,29.95,WSW,248,2.5,4.0,73,0.00,CLR,,0.00,WeatherDisplay:10.37,2013-02-13 00:00:00,
2013-02-12 19:05:00,76.5,67.2,29.95,SSE,158,5.8,5.8,73,0.00,CLR,,0.00,WeatherDisplay:10.37,2013-02-13 00:05:00,
2013-02-12 19:10:00,76.5,67.2,29.95,SSE,158,3.5,4.1,73,0.00,CLR,,0.00,WeatherDisplay:10.37,2013-02-13 00:10:00,
2013-02-12 19:15:00,76.5,67.2,29.95,WSW,248,4.6,4.6,73,0.00,CLR,,0.00,WeatherDisplay:10.37,2013-02-13 00:15:00,
2013-02-12 19:20:00,76.3,67.0,29.95,South,180,4.6,4.6,73,0.00,CLR,,0.00,WeatherDisplay:10.37,2013-02-13 00:20:00,
2013-02-12 19:25:00,76.1,66.8,29.95,South,180,3.5,3.5,73,0.00,CLR,,0.00,WeatherDisplay:10.37,2013-02-13 00:25:00,
2013-02-12 19:30:00,76.1,66.8,29.95,South,180,5.8,5.8,73,0.00,CLR,,0.00,WeatherDisplay:10.37,2013-02-13 00:30:00,
2013-02-12 19:35:00,76.1,66.8,29.95,SE,135,6.9,6.9,73,0.00,CLR,,0.00,WeatherDisplay:10.37,2013-02-13 00:35:00,
2013-02-12 19:40:00,76.1,67.2,29.95,ESE,112,6.9,6.9,74,0.00,CLR,,0.00,WeatherDisplay:10.37,2013-02-13 00:40:00,
2013-02-12 19:45:00,75.9,67.0,29.95,South,180,4.6,4.6,74,0.00,CLR,,0.00,WeatherDisplay:10.37,2013-02-13 00:45:00,
2013-02-12 19:50:00,76.1,67.2,29.95,SSW,202,5.8,5.8,74,0.00,CLR,,0.00,WeatherDisplay:10.37,2013-02-13 00:50:00,
2013-02-12 19:55:00,75.9,67.0,29.95,SW,225,2.3,3.5,74,0.00,CLR,,0.00,WeatherDisplay:10.37,2013-02-13 00:55:00,
2013-02-12 20:00:00,75.7,66.9,29.95,South,180,3.5,3.5,74,0.00,CLR,,0.00,WeatherDisplay:10.37,2013-02-13 01:00:00,
2013-02-12 20:05:00,75.7,66.9,29.95,SW,225,5.8,5.8,74,0.00,CLR,,0.00,WeatherDisplay:10.37,2013-02-13 01:05:00,
2013-02-12 20:10:00,75.6,66.7,29.95,South,180,4.6,4.6,74,0.00,CLR,,0.00,WeatherDisplay:10.37,2013-02-13 01:10:00,
2013-02-12 20:15:00,75.7,66.9,29.95,SE,135,5.1,5.1,74,0.00,CLR,,0.00,WeatherDisplay:10.37,2013-02-13 01:15:00,
2013-02-12 20:20:00,75.7,66.9,29.95,SE,135,3.5,3.5,74,0.00,CLR,,0.00,WeatherDisplay:10.37,2013-02-13 01:20:00,
2013-02-12 20:25:00,75.6,66.7,29.95,South,180,4.6,4.6,74,0.00,CLR,,0.00,WeatherDisplay:10.37,2013-02-13 01:25:00,
2013-02-12 20:30:00,75.4,66.5,29.96,SW,225,2.3,2.9,74,0.00,CLR,,0.00,WeatherDisplay:10.37,2013-02-13 01:30:00,
2013-02-12 20:35:00,75.4,66.9,29.96,SSE,158,5.2,5.2,75,0.00,CLR,,0.00,WeatherDisplay:10.37,2013-02-13 01:35:00,
2013-02-12 20:40:00,75.6,66.7,29.96,SSW,202,4.6,4.6,74,0.00,CLR,,0.00,WeatherDisplay:10.37,2013-02-13 01:40:00,
2013-02-12 20:45:00,75.7,66.9,29.96,South,180,3.5,3.5,74,0.00,CLR,,0.00,WeatherDisplay:10.37,2013-02-13 01:45:00,
2013-02-12 20:50:00,75.7,66.9,29.97,SSE,158,1.1,2.1,74,0.00,CLR,,0.00,WeatherDisplay:10.37,2013-02-13 01:50:00,
2013-02-12 20:55:00,75.7,67.2,29.97,WSW,248,6.9,6.9,75,0.00,CLR,,0.00,WeatherDisplay:10.37,2013-02-13 01:55:00,
2013-02-12 21:00:00,75.7,66.9,29.97,South,180,3.5,3.5,74,0.00,CLR,,0.00,WeatherDisplay:10.37,2013-02-13 02:00:00,
2013-02-12 21:05:00,75.7,67.2,29.97,SW,225,2.8,2.8,75,0.00,CLR,,0.00,WeatherDisplay:10.37,2013-02-13 02:05:00,
2013-02-12 21:10:00,75.7,67.2,29.97,SE,135,3.5,3.5,75,0.00,CLR,,0.00,WeatherDisplay:10.37,2013-02-13 02:10:00,
2013-02-12 21:15:00,75.7,67.2,29.97,South,180,1.3,1.5,75,0.00,CLR,,0.00,WeatherDisplay:10.37,2013-02-13 02:15:00,
2013-02-12 21:20:00,75.6,67.1,29.97,SSE,158,1.1,1.4,75,0.00,CLR,,0.00,WeatherDisplay:10.37,2013-02-13 02:20:00,
2013-02-12 21:25:00,75.4,66.9,29.97,ESE,112,3.5,3.5,75,0.00,CLR,,0.00,WeatherDisplay:10.37,2013-02-13 02:25:00,
2013-02-12 21:30:00,75.2,66.7,29.97,SSW,202,2.9,2.9,75,0.00,CLR,,0.00,WeatherDisplay:10.37,2013-02-13 02:30:00,
2013-02-12 21:35:00,75.2,66.7,29.97,SSE,158,2.3,2.3,75,0.00,CLR,,0.00,WeatherDisplay:10.37,2013-02-13 02:35:00,
2013-02-12 21:40:00,75.4,66.9,29.97,WSW,248,2.3,2.3,75,0.00,CLR,,0.00,WeatherDisplay:10.37,2013-02-13 02:40:00,
2013-02-12 21:45:00,75.4,66.9,29.97,SSE,158,3.5,3.5,75,0.00,CLR,,0.00,WeatherDisplay:10.37,2013-02-13 02:45:00,
2013-02-12 21:50:00,75.2,66.7,29.98,SSE,158,1.1,1.5,75,0.00,CLR,,0.00,WeatherDisplay:10.37,2013-02-13 02:50:00,
2013-02-12 21:55:00,75.2,67.1,29.98,SSW,202,2.3,2.3,76,0.00,CLR,,0.00,WeatherDisplay:10.37,2013-02-13 02:55:00,
2013-02-12 22:00:00,75.2,67.1,29.98,West,270,2.4,2.4,76,0.00,CLR,,0.00,WeatherDisplay:10.37,2013-02-13 03:00:00,
2013-02-12 22:05:00,75.0,66.9,29.98,SW,225,2.3,2.3,76,0.00,CLR,,0.00,WeatherDisplay:10.37,2013-02-13 03:05:00,
2013-02-12 22:10:00,75.0,66.9,29.98,West,270,1.3,1.3,76,0.00,CLR,,0.00,WeatherDisplay:10.37,2013-02-13 03:10:00,
2013-02-12 22:15:00,74.8,66.8,29.98,WSW,248,3.5,3.5,76,0.00,CLR,,0.00,WeatherDisplay:10.37,2013-02-13 03:15:00,
2013-02-12 22:20:00,75.0,66.9,29.98,South,180,1.1,1.1,76,0.00,CLR,,0.00,WeatherDisplay:10.37,2013-02-13 03:20:00,
2013-02-12 22:25:00,74.7,66.6,29.98,SW,225,2.3,2.3,76,0.00,CLR,,0.00,WeatherDisplay:10.37,2013-02-13 03:25:00,
2013-02-12 22:30:00,74.5,66.0,29.98,WSW,248,0.0,0.3,75,0.00,CLR,,0.00,WeatherDisplay:10.37,2013-02-13 03:30:00,
2013-02-12 22:35:00,74.5,66.0,29.98,SW,225,0.0,0.2,75,0.00,CLR,,0.00,WeatherDisplay:10.37,2013-02-13 03:35:00,
2013-02-12 22:40:00,74.1,65.7,29.98,West,270,0.0,0.1,75,0.00,CLR,,0.00,WeatherDisplay:10.37,2013-02-13 03:40:00,
2013-02-12 22:45:00,74.3,65.9,29.98,West,270,0.0,0.2,75,0.00,CLR,,0.00,WeatherDisplay:10.37,2013-02-13 03:45:00,
2013-02-12 22:50:00,73.9,65.9,29.98,WNW,292,0.0,0.2,76,0.00,CLR,,0.00,WeatherDisplay:10.37,2013-02-13 03:50:00,
2013-02-12 22:55:00,73.8,65.7,29.98,West,270,2.3,2.3,76,0.00,CLR,,0.00,WeatherDisplay:10.37,2013-02-13 03:55:00,
2013-02-12 23:00:00,73.8,65.7,29.98,West,270,0.0,0.2,76,0.00,CLR,,0.00,WeatherDisplay:10.37,2013-02-13 04:00:00,
2013-02-12 23:05:00,73.8,65.7,29.98,WSW,248,0.0,0.1,76,0.00,CLR,,0.00,WeatherDisplay:10.37,2013-02-13 04:05:00,
2013-02-12 23:10:00,73.6,65.5,29.99,West,270,0.0,0.1,76,0.00,CLR,,0.00,WeatherDisplay:10.37,2013-02-13 04:10:00,
2013-02-12 23:15:00,73.6,65.5,29.99,WSW,248,1.1,0.0,76,0.00,CLR,,0.00,WeatherDisplay:10.37,2013-02-13 04:15:00,
2013-02-12 23:20:00,73.4,65.7,29.99,WSW,248,2.3,2.3,77,0.00,CLR,,0.00,WeatherDisplay:10.37,2013-02-13 04:20:00,
2013-02-12 23:25:00,73.2,65.6,29.99,South,180,0.0,0.1,77,0.00,CLR,,0.00,WeatherDisplay:10.37,2013-02-13 04:25:00,
2013-02-12 23:30:00,73.0,65.4,29.97,SSE,158,0.0,0.1,77,0.00,CLR,,0.00,WeatherDisplay:10.37,2013-02-13 04:30:00,
2013-02-12 23:35:00,73.0,65.4,29.97,South,180,0.0,0.1,77,0.00,CLR,,0.00,WeatherDisplay:10.37,2013-02-13 04:35:00,
2013-02-12 23:40:00,73.0,65.4,29.97,SW,225,0.0,0.0,77,0.00,CLR,,0.00,WeatherDisplay:10.37,2013-02-13 04:40:00,
2013-02-12 23:45:00,72.7,65.1,29.97,SSE,158,0.0,0.0,77,0.00,CLR,,0.00,WeatherDisplay:10.37,2013-02-13 04:45:00,
2013-02-12 23:50:00,72.7,65.1,29.97,WSW,248,0.0,0.0,77,0.00,CLR,,0.00,WeatherDisplay:10.37,2013-02-13 04:50:00,
2013-02-12 23:55:00,72.5,64.9,29.97,SW,225,0.0,0.0,77,0.00,CLR,,0.00,WeatherDisplay:10.37,2013-02-13 04:55:00,